sensor_id;sensor_type;location;lat;lon;timestamp;temperature;humidity
5118;DHT22;2578;51.622;7.046;2023-04-01T00:01:26;9.50;99.90
5118;DHT22;2578;51.622;7.046;2023-04-01T00:03:51;9.90;99.90
5118;DHT22;2578;51.622;7.046;2023-04-01T00:06:18;9.50;99.90
5118;DHT22;2578;51.622;7.046;2023-04-01T00:08:44;9.50;99.90
5118;DHT22;2578;51.622;7.046;2023-04-01T00:11:10;9.50;99.90
5118;DHT22;2578;51.622;7.046;2023-04-01T00:13:36;9.50;99.90
5118;DHT22;2578;51.622;7.046;2023-04-01T00:16:02;9.50;99.90
5118;DHT22;2578;51.622;7.046;2023-04-01T00:18:28;10.50;99.90
5118;DHT22;2578;51.622;7.046;2023-04-01T00:20:54;9.50;99.90
5118;DHT22;2578;51.622;7.046;2023-04-01T00:23:20;9.50;99.90
5118;DHT22;2578;51.622;7.046;2023-04-01T00:25:46;9.50;99.90
5118;DHT22;2578;51.622;7.046;2023-04-01T00:28:14;9.50;99.90
5118;DHT22;2578;51.622;7.046;2023-04-01T00:30:40;9.40;99.90
5118;DHT22;2578;51.622;7.046;2023-04-01T00:33:06;9.80;99.90
5118;DHT22;2578;51.622;7.046;2023-04-01T00:35:31;9.50;99.90
5118;DHT22;2578;51.622;7.046;2023-04-01T00:37:57;9.40;99.90
5118;DHT22;2578;51.622;7.046;2023-04-01T00:40:44;9.50;99.90
5118;DHT22;2578;51.622;7.046;2023-04-01T00:43:16;9.50;99.90
5118;DHT22;2578;51.622;7.046;2023-04-01T00:45:48;9.50;99.90
5118;DHT22;2578;51.622;7.046;2023-04-01T00:48:19;9.50;99.90
5118;DHT22;2578;51.622;7.046;2023-04-01T00:50:54;9.50;99.90
5118;DHT22;2578;51.622;7.046;2023-04-01T00:53:21;9.60;99.90
5118;DHT22;2578;51.622;7.046;2023-04-01T00:56:15;9.30;99.90
5118;DHT22;2578;51.622;7.046;2023-04-01T00:58:46;9.50;99.90
5118;DHT22;2578;51.622;7.046;2023-04-01T01:01:13;9.40;99.90
5118;DHT22;2578;51.622;7.046;2023-04-01T01:03:38;9.50;99.90
5118;DHT22;2578;51.622;7.046;2023-04-01T01:06:08;10.70;99.90
5118;DHT22;2578;51.622;7.046;2023-04-01T01:11:25;9.50;99.90
5118;DHT22;2578;51.622;7.046;2023-04-01T01:14:09;9.40;99.90
5118;DHT22;2578;51.622;7.046;2023-04-01T01:16:51;9.40;99.90
5118;DHT22;2578;51.622;7.046;2023-04-01T01:25:02;9.40;99.90
5118;DHT22;2578;51.622;7.046;2023-04-01T01:27:34;9.40;99.90
5118;DHT22;2578;51.622;7.046;2023-04-01T01:30:35;9.40;99.90
5118;DHT22;2578;51.622;7.046;2023-04-01T01:35:39;9.40;99.90
5118;DHT22;2578;51.622;7.046;2023-04-01T01:38:10;9.40;99.90
5118;DHT22;2578;51.622;7.046;2023-04-01T01:40:38;9.40;99.90
5118;DHT22;2578;51.622;7.046;2023-04-01T01:43:08;9.30;99.90
5118;DHT22;2578;51.622;7.046;2023-04-01T01:45:37;9.30;99.90
5118;DHT22;2578;51.622;7.046;2023-04-01T01:48:07;9.30;99.90
5118;DHT22;2578;51.622;7.046;2023-04-01T01:50:35;9.40;99.90
5118;DHT22;2578;51.622;7.046;2023-04-01T01:53:05;9.30;99.90
5118;DHT22;2578;51.622;7.046;2023-04-01T01:55:34;9.30;99.90
5118;DHT22;2578;51.622;7.046;2023-04-01T01:58:24;9.30;99.90
5118;DHT22;2578;51.622;7.046;2023-04-01T02:00:59;9.60;99.90
5118;DHT22;2578;51.622;7.046;2023-04-01T02:03:28;9.30;99.90
5118;DHT22;2578;51.622;7.046;2023-04-01T02:05:57;9.30;99.90
5118;DHT22;2578;51.622;7.046;2023-04-01T02:08:41;9.30;99.90
5118;DHT22;2578;51.622;7.046;2023-04-01T02:11:12;11.10;99.90
5118;DHT22;2578;51.622;7.046;2023-04-01T02:13:49;9.30;99.90
5118;DHT22;2578;51.622;7.046;2023-04-01T02:16:20;9.30;99.90
5118;DHT22;2578;51.622;7.046;2023-04-01T02:18:50;9.20;99.90
5118;DHT22;2578;51.622;7.046;2023-04-01T02:21:20;9.20;99.90
5118;DHT22;2578;51.622;7.046;2023-04-01T02:23:47;10.20;99.90
5118;DHT22;2578;51.622;7.046;2023-04-01T02:26:14;9.20;99.90
5118;DHT22;2578;51.622;7.046;2023-04-01T02:28:41;9.40;99.90
5118;DHT22;2578;51.622;7.046;2023-04-01T02:31:09;9.20;99.90
5118;DHT22;2578;51.622;7.046;2023-04-01T02:33:36;9.20;99.90
5118;DHT22;2578;51.622;7.046;2023-04-01T02:36:04;9.20;99.90
5118;DHT22;2578;51.622;7.046;2023-04-01T02:38:29;9.20;99.90
5118;DHT22;2578;51.622;7.046;2023-04-01T02:41:00;10.60;99.90
5118;DHT22;2578;51.622;7.046;2023-04-01T02:43:26;9.30;99.90
5118;DHT22;2578;51.622;7.046;2023-04-01T02:45:52;9.20;99.90
5118;DHT22;2578;51.622;7.046;2023-04-01T02:48:18;9.40;99.90
5118;DHT22;2578;51.622;7.046;2023-04-01T02:50:43;9.30;99.90
5118;DHT22;2578;51.622;7.046;2023-04-01T02:53:09;9.50;99.90
5118;DHT22;2578;51.622;7.046;2023-04-01T02:55:35;9.30;99.90
5118;DHT22;2578;51.622;7.046;2023-04-01T02:58:01;9.30;99.90
5118;DHT22;2578;51.622;7.046;2023-04-01T03:00:27;9.40;99.90
5118;DHT22;2578;51.622;7.046;2023-04-01T03:02:52;9.40;99.90
5118;DHT22;2578;51.622;7.046;2023-04-01T03:05:19;9.40;99.90
5118;DHT22;2578;51.622;7.046;2023-04-01T03:07:44;9.30;99.90
5118;DHT22;2578;51.622;7.046;2023-04-01T03:10:10;9.30;99.90
5118;DHT22;2578;51.622;7.046;2023-04-01T03:12:36;9.30;99.90
5118;DHT22;2578;51.622;7.046;2023-04-01T03:15:02;9.30;99.90
5118;DHT22;2578;51.622;7.046;2023-04-01T03:17:28;9.20;99.90
5118;DHT22;2578;51.622;7.046;2023-04-01T03:19:54;9.30;99.90
5118;DHT22;2578;51.622;7.046;2023-04-01T03:22:20;9.20;99.90
5118;DHT22;2578;51.622;7.046;2023-04-01T03:24:47;9.20;99.90
5118;DHT22;2578;51.622;7.046;2023-04-01T03:27:13;9.10;99.90
5118;DHT22;2578;51.622;7.046;2023-04-01T03:29:39;9.30;99.90
5118;DHT22;2578;51.622;7.046;2023-04-01T03:32:04;9.20;99.90
5118;DHT22;2578;51.622;7.046;2023-04-01T03:34:30;9.30;99.90
5118;DHT22;2578;51.622;7.046;2023-04-01T03:36:56;10.50;99.90
5118;DHT22;2578;51.622;7.046;2023-04-01T03:39:21;9.30;99.90
5118;DHT22;2578;51.622;7.046;2023-04-01T03:41:47;9.30;99.90
5118;DHT22;2578;51.622;7.046;2023-04-01T03:44:13;9.30;99.90
5118;DHT22;2578;51.622;7.046;2023-04-01T03:46:39;9.30;99.90
5118;DHT22;2578;51.622;7.046;2023-04-01T03:49:11;9.30;99.90
5118;DHT22;2578;51.622;7.046;2023-04-01T03:51:42;9.30;99.90
5118;DHT22;2578;51.622;7.046;2023-04-01T03:54:08;9.30;99.90
5118;DHT22;2578;51.622;7.046;2023-04-01T03:56:34;9.30;99.90
5118;DHT22;2578;51.622;7.046;2023-04-01T03:59:05;9.40;99.90
5118;DHT22;2578;51.622;7.046;2023-04-01T04:01:31;9.30;99.90
5118;DHT22;2578;51.622;7.046;2023-04-01T04:03:57;9.30;99.90
5118;DHT22;2578;51.622;7.046;2023-04-01T04:06:23;9.30;99.90
5118;DHT22;2578;51.622;7.046;2023-04-01T04:08:49;9.30;99.90
5118;DHT22;2578;51.622;7.046;2023-04-01T04:11:15;9.30;99.90
5118;DHT22;2578;51.622;7.046;2023-04-01T04:13:41;9.30;99.90
5118;DHT22;2578;51.622;7.046;2023-04-01T04:16:08;9.30;99.90
5118;DHT22;2578;51.622;7.046;2023-04-01T04:18:35;9.40;99.90
5118;DHT22;2578;51.622;7.046;2023-04-01T04:21:01;10.10;99.90
5118;DHT22;2578;51.622;7.046;2023-04-01T04:23:26;9.30;99.90
5118;DHT22;2578;51.622;7.046;2023-04-01T04:26:02;9.40;99.90
5118;DHT22;2578;51.622;7.046;2023-04-01T04:28:28;9.40;99.90
5118;DHT22;2578;51.622;7.046;2023-04-01T04:30:54;9.40;99.90
5118;DHT22;2578;51.622;7.046;2023-04-01T04:33:22;9.40;99.90
5118;DHT22;2578;51.622;7.046;2023-04-01T04:35:48;9.40;99.90
5118;DHT22;2578;51.622;7.046;2023-04-01T04:38:14;9.40;99.90
5118;DHT22;2578;51.622;7.046;2023-04-01T04:40:41;9.30;99.90
5118;DHT22;2578;51.622;7.046;2023-04-01T04:43:08;9.50;99.90
5118;DHT22;2578;51.622;7.046;2023-04-01T04:45:35;9.40;99.90
5118;DHT22;2578;51.622;7.046;2023-04-01T04:48:00;9.40;99.90
5118;DHT22;2578;51.622;7.046;2023-04-01T04:50:26;9.40;99.90
5118;DHT22;2578;51.622;7.046;2023-04-01T04:52:52;9.40;99.90
5118;DHT22;2578;51.622;7.046;2023-04-01T04:55:17;9.40;99.90
5118;DHT22;2578;51.622;7.046;2023-04-01T04:57:43;9.40;99.90
5118;DHT22;2578;51.622;7.046;2023-04-01T05:00:09;9.40;99.90
5118;DHT22;2578;51.622;7.046;2023-04-01T05:02:38;9.40;99.90
5118;DHT22;2578;51.622;7.046;2023-04-01T05:05:04;9.40;99.90
5118;DHT22;2578;51.622;7.046;2023-04-01T05:07:30;9.40;99.90
5118;DHT22;2578;51.622;7.046;2023-04-01T05:09:55;9.50;99.90
5118;DHT22;2578;51.622;7.046;2023-04-01T05:12:21;10.00;99.90
5118;DHT22;2578;51.622;7.046;2023-04-01T05:14:47;9.40;99.90
5118;DHT22;2578;51.622;7.046;2023-04-01T05:17:13;10.20;99.90
5118;DHT22;2578;51.622;7.046;2023-04-01T05:19:39;9.40;99.90
5118;DHT22;2578;51.622;7.046;2023-04-01T05:22:05;9.40;99.90
5118;DHT22;2578;51.622;7.046;2023-04-01T05:24:31;9.40;99.90
5118;DHT22;2578;51.622;7.046;2023-04-01T05:26:57;9.40;99.90
5118;DHT22;2578;51.622;7.046;2023-04-01T05:29:24;9.40;99.90
5118;DHT22;2578;51.622;7.046;2023-04-01T05:31:49;9.40;99.90
5118;DHT22;2578;51.622;7.046;2023-04-01T05:34:15;9.40;99.90
5118;DHT22;2578;51.622;7.046;2023-04-01T05:36:42;9.80;99.90
5118;DHT22;2578;51.622;7.046;2023-04-01T05:39:08;9.40;99.90
5118;DHT22;2578;51.622;7.046;2023-04-01T05:41:37;10.60;99.90
5118;DHT22;2578;51.622;7.046;2023-04-01T05:44:04;9.40;99.90
5118;DHT22;2578;51.622;7.046;2023-04-01T05:46:30;9.40;99.90
5118;DHT22;2578;51.622;7.046;2023-04-01T05:48:56;9.60;99.90
5118;DHT22;2578;51.622;7.046;2023-04-01T05:51:21;9.40;99.90
5118;DHT22;2578;51.622;7.046;2023-04-01T05:53:48;9.50;99.90
5118;DHT22;2578;51.622;7.046;2023-04-01T05:56:14;9.40;99.90
5118;DHT22;2578;51.622;7.046;2023-04-01T05:58:39;9.50;99.90
5118;DHT22;2578;51.622;7.046;2023-04-01T06:01:10;9.50;99.90
5118;DHT22;2578;51.622;7.046;2023-04-01T06:03:36;9.40;99.90
5118;DHT22;2578;51.622;7.046;2023-04-01T06:06:03;9.40;99.90
5118;DHT22;2578;51.622;7.046;2023-04-01T06:08:31;9.40;99.90
5118;DHT22;2578;51.622;7.046;2023-04-01T06:16:58;9.40;99.90
5118;DHT22;2578;51.622;7.046;2023-04-01T06:22:14;9.40;99.90
5118;DHT22;2578;51.622;7.046;2023-04-01T06:43:48;9.40;99.90
5118;DHT22;2578;51.622;7.046;2023-04-01T06:52:08;9.40;99.90
5118;DHT22;2578;51.622;7.046;2023-04-01T06:54:44;9.50;99.90
5118;DHT22;2578;51.622;7.046;2023-04-01T06:57:33;9.50;99.90
5118;DHT22;2578;51.622;7.046;2023-04-01T07:00:02;9.50;99.90
5118;DHT22;2578;51.622;7.046;2023-04-01T07:02:43;9.50;99.90
5118;DHT22;2578;51.622;7.046;2023-04-01T07:05:11;9.40;99.90
5118;DHT22;2578;51.622;7.046;2023-04-01T07:07:46;9.40;99.90
5118;DHT22;2578;51.622;7.046;2023-04-01T07:11:09;9.60;99.90
5118;DHT22;2578;51.622;7.046;2023-04-01T07:13:15;9.50;99.90
5118;DHT22;2578;51.622;7.046;2023-04-01T07:15:46;9.50;99.90
5118;DHT22;2578;51.622;7.046;2023-04-01T07:18:19;10.60;99.90
5118;DHT22;2578;51.622;7.046;2023-04-01T07:20:48;9.60;99.90
5118;DHT22;2578;51.622;7.046;2023-04-01T07:23:23;9.60;99.90
5118;DHT22;2578;51.622;7.046;2023-04-01T07:25:55;9.60;99.90
5118;DHT22;2578;51.622;7.046;2023-04-01T07:28:23;9.70;99.90
5118;DHT22;2578;51.622;7.046;2023-04-01T07:36:23;9.70;99.90
5118;DHT22;2578;51.622;7.046;2023-04-01T07:39:04;9.70;99.90
5118;DHT22;2578;51.622;7.046;2023-04-01T07:47:11;9.60;99.90
5118;DHT22;2578;51.622;7.046;2023-04-01T07:58:45;9.60;99.90
5118;DHT22;2578;51.622;7.046;2023-04-01T08:01:39;11.00;99.90
5118;DHT22;2578;51.622;7.046;2023-04-01T08:06:51;9.80;99.90
5118;DHT22;2578;51.622;7.046;2023-04-01T08:09:44;9.60;99.90
5118;DHT22;2578;51.622;7.046;2023-04-01T08:15:28;9.80;99.90
5118;DHT22;2578;51.622;7.046;2023-04-01T08:18:10;9.80;99.90
5118;DHT22;2578;51.622;7.046;2023-04-01T08:23:15;9.80;99.90
5118;DHT22;2578;51.622;7.046;2023-04-01T08:25:58;9.90;99.90
5118;DHT22;2578;51.622;7.046;2023-04-01T08:28:43;9.90;99.90
5118;DHT22;2578;51.622;7.046;2023-04-01T08:31:18;9.90;99.90
5118;DHT22;2578;51.622;7.046;2023-04-01T08:33:49;9.90;99.90
5118;DHT22;2578;51.622;7.046;2023-04-01T08:36:29;9.80;99.90
5118;DHT22;2578;51.622;7.046;2023-04-01T08:55:51;10.00;99.90
5118;DHT22;2578;51.622;7.046;2023-04-01T09:04:04;10.00;99.90
5118;DHT22;2578;51.622;7.046;2023-04-01T09:06:35;10.00;99.90
5118;DHT22;2578;51.622;7.046;2023-04-01T09:18:01;10.00;99.90
5118;DHT22;2578;51.622;7.046;2023-04-01T09:21:02;10.10;99.90
5118;DHT22;2578;51.622;7.046;2023-04-01T09:24:03;10.20;99.90
5118;DHT22;2578;51.622;7.046;2023-04-01T09:37:34;10.20;99.90
5118;DHT22;2578;51.622;7.046;2023-04-01T09:46:06;10.20;99.90
5118;DHT22;2578;51.622;7.046;2023-04-01T09:57:29;10.50;99.90
5118;DHT22;2578;51.622;7.046;2023-04-01T10:00:13;10.60;99.90
5118;DHT22;2578;51.622;7.046;2023-04-01T10:05:54;10.50;99.90
5118;DHT22;2578;51.622;7.046;2023-04-01T10:14:06;10.60;99.90
5118;DHT22;2578;51.622;7.046;2023-04-01T10:25:05;10.70;99.90
5118;DHT22;2578;51.622;7.046;2023-04-01T10:27:47;10.70;99.90
5118;DHT22;2578;51.622;7.046;2023-04-01T10:38:51;10.80;99.90
5118;DHT22;2578;51.622;7.046;2023-04-01T10:50:23;10.80;99.90
5118;DHT22;2578;51.622;7.046;2023-04-01T11:18:53;10.60;99.90
5118;DHT22;2578;51.622;7.046;2023-04-01T11:21:33;10.50;99.90
5118;DHT22;2578;51.622;7.046;2023-04-01T11:24:32;10.50;99.90
5118;DHT22;2578;51.622;7.046;2023-04-01T11:32:42;10.60;99.90
5118;DHT22;2578;51.622;7.046;2023-04-01T11:38:15;10.70;99.90
5118;DHT22;2578;51.622;7.046;2023-04-01T11:41:03;10.70;99.90
5118;DHT22;2578;51.622;7.046;2023-04-01T11:43:49;10.70;99.90
5118;DHT22;2578;51.622;7.046;2023-04-01T11:46:31;10.60;99.90
5118;DHT22;2578;51.622;7.046;2023-04-01T11:49:53;10.50;99.90
5118;DHT22;2578;51.622;7.046;2023-04-01T11:52:21;10.50;99.90
5118;DHT22;2578;51.622;7.046;2023-04-01T11:55:19;10.50;99.90
5118;DHT22;2578;51.622;7.046;2023-04-01T12:01:03;10.40;99.90
5118;DHT22;2578;51.622;7.046;2023-04-01T12:20:57;10.60;99.90
5118;DHT22;2578;51.622;7.046;2023-04-01T12:23:40;10.60;99.90
5118;DHT22;2578;51.622;7.046;2023-04-01T12:29:36;10.60;99.90
5118;DHT22;2578;51.622;7.046;2023-04-01T12:35:13;10.60;99.90
5118;DHT22;2578;51.622;7.046;2023-04-01T12:38:24;10.60;99.90
5118;DHT22;2578;51.622;7.046;2023-04-01T12:41:32;10.60;99.90
5118;DHT22;2578;51.622;7.046;2023-04-01T13:00:09;10.50;99.90
5118;DHT22;2578;51.622;7.046;2023-04-01T13:16:24;10.60;99.90
5118;DHT22;2578;51.622;7.046;2023-04-01T13:24:44;10.40;99.90
5118;DHT22;2578;51.622;7.046;2023-04-01T13:27:24;10.40;99.90
5118;DHT22;2578;51.622;7.046;2023-04-01T13:30:12;10.40;99.90
5118;DHT22;2578;51.622;7.046;2023-04-01T13:33:04;10.40;99.90
5118;DHT22;2578;51.622;7.046;2023-04-01T13:48:17;10.30;99.90
5118;DHT22;2578;51.622;7.046;2023-04-01T13:56:24;10.30;99.90
5118;DHT22;2578;51.622;7.046;2023-04-01T13:59:19;10.40;99.90
5118;DHT22;2578;51.622;7.046;2023-04-01T14:04:47;10.50;99.90
5118;DHT22;2578;51.622;7.046;2023-04-01T14:13:17;10.40;99.90
5118;DHT22;2578;51.622;7.046;2023-04-01T14:22:14;10.60;99.90
5118;DHT22;2578;51.622;7.046;2023-04-01T14:33:41;10.80;99.90
5118;DHT22;2578;51.622;7.046;2023-04-01T14:44:32;11.00;99.90
5118;DHT22;2578;51.622;7.046;2023-04-01T14:47:34;11.00;99.90
5118;DHT22;2578;51.622;7.046;2023-04-01T14:50:09;10.90;99.90
5118;DHT22;2578;51.622;7.046;2023-04-01T14:52:40;11.00;99.90
5118;DHT22;2578;51.622;7.046;2023-04-01T14:55:28;11.00;99.90
5118;DHT22;2578;51.622;7.046;2023-04-01T14:58:09;11.00;99.90
5118;DHT22;2578;51.622;7.046;2023-04-01T15:03:29;10.90;99.90
5118;DHT22;2578;51.622;7.046;2023-04-01T15:09:41;11.00;99.90
5118;DHT22;2578;51.622;7.046;2023-04-01T15:15:10;10.80;99.90
5118;DHT22;2578;51.622;7.046;2023-04-01T15:17:55;10.70;99.90
5118;DHT22;2578;51.622;7.046;2023-04-01T15:35:21;10.60;99.90
5118;DHT22;2578;51.622;7.046;2023-04-01T15:40:37;10.60;99.90
5118;DHT22;2578;51.622;7.046;2023-04-01T15:43:40;10.70;99.90
5118;DHT22;2578;51.622;7.046;2023-04-01T15:46:30;10.70;99.90
5118;DHT22;2578;51.622;7.046;2023-04-01T15:52:41;10.50;99.90
5118;DHT22;2578;51.622;7.046;2023-04-01T15:58:06;10.50;99.90
5118;DHT22;2578;51.622;7.046;2023-04-01T16:03:37;10.40;99.90
5118;DHT22;2578;51.622;7.046;2023-04-01T16:06:17;10.40;99.90
5118;DHT22;2578;51.622;7.046;2023-04-01T16:09:13;10.30;99.90
5118;DHT22;2578;51.622;7.046;2023-04-01T16:17:28;10.40;99.90
5118;DHT22;2578;51.622;7.046;2023-04-01T16:22:34;10.40;99.90
5118;DHT22;2578;51.622;7.046;2023-04-01T16:30:48;10.40;99.90
5118;DHT22;2578;51.622;7.046;2023-04-01T16:36:13;10.40;99.90
5118;DHT22;2578;51.622;7.046;2023-04-01T16:41:20;10.40;99.90
5118;DHT22;2578;51.622;7.046;2023-04-01T16:43:56;10.40;99.90
5118;DHT22;2578;51.622;7.046;2023-04-01T16:46:46;10.40;99.90
5118;DHT22;2578;51.622;7.046;2023-04-01T16:55:50;10.30;99.90
5118;DHT22;2578;51.622;7.046;2023-04-01T16:58:25;10.30;99.90
5118;DHT22;2578;51.622;7.046;2023-04-01T17:00:59;10.30;99.90
5118;DHT22;2578;51.622;7.046;2023-04-01T17:03:36;10.30;99.90
5118;DHT22;2578;51.622;7.046;2023-04-01T17:11:41;10.30;99.90
5118;DHT22;2578;51.622;7.046;2023-04-01T17:14:24;10.30;99.90
5118;DHT22;2578;51.622;7.046;2023-04-01T17:17:04;10.30;99.90
5118;DHT22;2578;51.622;7.046;2023-04-01T17:19:48;10.30;99.90
5118;DHT22;2578;51.622;7.046;2023-04-01T17:25:45;11.60;99.90
5118;DHT22;2578;51.622;7.046;2023-04-01T17:28:45;10.30;99.90
5118;DHT22;2578;51.622;7.046;2023-04-01T17:39:28;10.20;99.90
5118;DHT22;2578;51.622;7.046;2023-04-01T17:47:20;10.20;99.90
5118;DHT22;2578;51.622;7.046;2023-04-01T17:55:39;10.30;99.90
5118;DHT22;2578;51.622;7.046;2023-04-01T17:59:02;10.30;99.90
5118;DHT22;2578;51.622;7.046;2023-04-01T18:03:55;10.30;99.90
5118;DHT22;2578;51.622;7.046;2023-04-01T18:20:36;10.30;99.90
5118;DHT22;2578;51.622;7.046;2023-04-01T18:25:47;10.30;99.90
5118;DHT22;2578;51.622;7.046;2023-04-01T18:28:35;10.30;99.90
5118;DHT22;2578;51.622;7.046;2023-04-01T18:36:47;10.30;99.90
5118;DHT22;2578;51.622;7.046;2023-04-01T18:39:16;10.30;99.90
5118;DHT22;2578;51.622;7.046;2023-04-01T18:44:26;10.20;99.90
5118;DHT22;2578;51.622;7.046;2023-04-01T18:47:03;10.20;99.90
5118;DHT22;2578;51.622;7.046;2023-04-01T18:52:36;10.10;99.90
5118;DHT22;2578;51.622;7.046;2023-04-01T18:57:50;10.10;99.90
5118;DHT22;2578;51.622;7.046;2023-04-01T19:00:40;10.10;99.90
5118;DHT22;2578;51.622;7.046;2023-04-01T19:03:25;10.00;99.90
5118;DHT22;2578;51.622;7.046;2023-04-01T19:05:54;10.00;99.90
5118;DHT22;2578;51.622;7.046;2023-04-01T19:16:26;9.80;99.90
5118;DHT22;2578;51.622;7.046;2023-04-01T19:21:58;9.70;99.90
5118;DHT22;2578;51.622;7.046;2023-04-01T19:32:27;9.70;99.90
5118;DHT22;2578;51.622;7.046;2023-04-01T19:43:51;9.50;99.90
5118;DHT22;2578;51.622;7.046;2023-04-01T19:46:39;9.40;99.90
5118;DHT22;2578;51.622;7.046;2023-04-01T19:51:39;9.30;99.90
5118;DHT22;2578;51.622;7.046;2023-04-01T20:04:45;9.10;99.90
5118;DHT22;2578;51.622;7.046;2023-04-01T20:07:34;9.10;99.90
5118;DHT22;2578;51.622;7.046;2023-04-01T20:10:12;9.10;99.90
5118;DHT22;2578;51.622;7.046;2023-04-01T20:12:50;9.10;99.90
5118;DHT22;2578;51.622;7.046;2023-04-01T20:15:36;9.40;99.90
5118;DHT22;2578;51.622;7.046;2023-04-01T20:20:53;9.00;99.90
5118;DHT22;2578;51.622;7.046;2023-04-01T20:23:41;8.90;99.90
5118;DHT22;2578;51.622;7.046;2023-04-01T20:26:11;8.80;99.90
5118;DHT22;2578;51.622;7.046;2023-04-01T20:29:04;8.80;99.90
5118;DHT22;2578;51.622;7.046;2023-04-01T20:31:40;8.80;99.90
5118;DHT22;2578;51.622;7.046;2023-04-01T20:34:33;8.70;99.90
5118;DHT22;2578;51.622;7.046;2023-04-01T20:45:46;8.50;99.90
5118;DHT22;2578;51.622;7.046;2023-04-01T20:50:50;8.50;99.90
5118;DHT22;2578;51.622;7.046;2023-04-01T20:53:37;8.50;99.90
5118;DHT22;2578;51.622;7.046;2023-04-01T21:01:35;8.60;99.90
5118;DHT22;2578;51.622;7.046;2023-04-01T21:34:40;8.10;99.90
5118;DHT22;2578;51.622;7.046;2023-04-01T21:37:15;8.00;99.90
5118;DHT22;2578;51.622;7.046;2023-04-01T21:57:10;7.80;99.90
5118;DHT22;2578;51.622;7.046;2023-04-01T22:07:19;7.60;99.90
5118;DHT22;2578;51.622;7.046;2023-04-01T22:09:57;7.60;99.90
5118;DHT22;2578;51.622;7.046;2023-04-01T22:12:28;7.60;99.90
5118;DHT22;2578;51.622;7.046;2023-04-01T22:17:32;7.60;99.90
5118;DHT22;2578;51.622;7.046;2023-04-01T22:23:06;7.50;99.90
5118;DHT22;2578;51.622;7.046;2023-04-01T22:28:24;7.50;99.90
5118;DHT22;2578;51.622;7.046;2023-04-01T22:31:01;7.60;99.90
5118;DHT22;2578;51.622;7.046;2023-04-01T22:33:34;7.50;99.90
5118;DHT22;2578;51.622;7.046;2023-04-01T22:39:04;7.50;99.90
5118;DHT22;2578;51.622;7.046;2023-04-01T22:42:01;7.50;99.90
5118;DHT22;2578;51.622;7.046;2023-04-01T22:47:22;7.40;99.90
5118;DHT22;2578;51.622;7.046;2023-04-01T22:55:00;7.30;99.90
5118;DHT22;2578;51.622;7.046;2023-04-01T22:57:36;7.30;99.90
5118;DHT22;2578;51.622;7.046;2023-04-01T23:00:08;7.50;99.90
5118;DHT22;2578;51.622;7.046;2023-04-01T23:03:00;7.20;99.90
5118;DHT22;2578;51.622;7.046;2023-04-01T23:05:27;7.20;99.90
5118;DHT22;2578;51.622;7.046;2023-04-01T23:11:14;7.10;99.90
5118;DHT22;2578;51.622;7.046;2023-04-01T23:13:54;7.00;99.90
5118;DHT22;2578;51.622;7.046;2023-04-01T23:16:33;7.00;99.90
5118;DHT22;2578;51.622;7.046;2023-04-01T23:19:23;7.00;99.90
5118;DHT22;2578;51.622;7.046;2023-04-01T23:22:06;7.00;99.90
5118;DHT22;2578;51.622;7.046;2023-04-01T23:24:47;6.90;99.90
5118;DHT22;2578;51.622;7.046;2023-04-01T23:27:30;6.90;99.90
5118;DHT22;2578;51.622;7.046;2023-04-01T23:29:56;6.90;99.90
5118;DHT22;2578;51.622;7.046;2023-04-01T23:32:24;6.90;99.90
5118;DHT22;2578;51.622;7.046;2023-04-01T23:34:56;7.00;99.90
5118;DHT22;2578;51.622;7.046;2023-04-01T23:37:23;6.80;99.90
5118;DHT22;2578;51.622;7.046;2023-04-01T23:39:53;6.70;99.90
5118;DHT22;2578;51.622;7.046;2023-04-01T23:42:21;6.90;99.90
5118;DHT22;2578;51.622;7.046;2023-04-01T23:45:00;6.70;99.90
5118;DHT22;2578;51.622;7.046;2023-04-01T23:47:32;6.70;99.90
5118;DHT22;2578;51.622;7.046;2023-04-01T23:50:06;6.70;99.90
5118;DHT22;2578;51.622;7.046;2023-04-01T23:52:39;7.10;99.90
5118;DHT22;2578;51.622;7.046;2023-04-01T23:55:25;7.20;99.90
